createdAt,value
2019-01-21T00:04:53.996Z,77.30
2019-01-21T00:09:59.349Z,77.20
2019-01-21T00:15:04.841Z,77.40
2019-01-21T00:20:11.365Z,77.20
2019-01-21T00:25:16.801Z,77.30
2019-01-21T00:30:22.159Z,77.60
2019-01-21T00:35:27.542Z,78.10
2019-01-21T00:40:32.861Z,78.60
2019-01-21T00:45:38.199Z,78.80
2019-01-21T00:50:43.505Z,78.60
2019-01-21T00:55:48.827Z,78.80
2019-01-21T01:00:54.200Z,79.70
2019-01-21T01:05:59.585Z,79.20
2019-01-21T01:11:04.929Z,79.00
2019-01-21T01:16:10.286Z,79.30
2019-01-21T01:21:15.617Z,79.00
2019-01-21T01:26:20.963Z,78.80
2019-01-21T01:31:26.272Z,78.90
2019-01-21T01:36:31.673Z,79.60
2019-01-21T01:41:36.990Z,80.00
2019-01-21T01:46:42.318Z,79.80
2019-01-21T01:51:47.652Z,79.60
2019-01-21T01:56:52.979Z,79.60
2019-01-21T02:01:58.433Z,79.60
2019-01-21T02:07:03.840Z,79.70
2019-01-21T02:12:09.198Z,79.80
2019-01-21T02:17:14.538Z,79.70
2019-01-21T02:22:19.887Z,80.00
2019-01-21T02:28:22.898Z,80.50
2019-01-21T02:34:04.556Z,80.60
2019-01-21T02:39:43.034Z,80.40
2019-01-21T02:45:50.754Z,80.10
2019-01-21T02:52:02.087Z,80.10
2019-01-21T02:57:58.676Z,79.80
2019-01-21T03:03:42.703Z,79.60
2019-01-21T03:09:41.483Z,79.60
2019-01-21T03:15:41.408Z,79.90
2019-01-21T03:21:29.828Z,80.80
2019-01-21T03:27:06.930Z,81.10
2019-01-21T03:32:55.296Z,81.70
2019-01-21T03:39:09.610Z,81.10
2019-01-21T03:45:24.323Z,80.70
2019-01-21T03:51:42.765Z,81.10
2019-01-21T03:57:24.772Z,80.60
2019-01-21T04:03:16.492Z,81.10
2019-01-21T04:09:39.840Z,81.20
2019-01-21T04:15:05.897Z,81.10
2019-01-21T04:20:39.833Z,82.00
2019-01-21T04:26:23.012Z,81.30
2019-01-21T04:32:22.359Z,81.60
2019-01-21T04:38:37.015Z,81.50
2019-01-21T04:44:29.791Z,81.50
2019-01-21T04:50:26.226Z,81.70
2019-01-21T04:56:28.879Z,81.40
2019-01-21T05:02:31.778Z,81.10
2019-01-21T05:08:31.378Z,81.10
2019-01-21T05:14:32.999Z,81.10
2019-01-21T05:20:52.192Z,80.70
2019-01-21T05:27:00.877Z,80.50
2019-01-21T05:32:58.374Z,81.30
2019-01-21T05:38:48.936Z,82.60
2019-01-21T05:44:44.405Z,81.80
2019-01-21T05:50:45.516Z,81.90
2019-01-21T05:57:04.603Z,81.50
2019-01-21T06:02:52.485Z,81.60
2019-01-21T06:09:29.934Z,81.30
2019-01-21T06:15:38.473Z,81.30
2019-01-21T06:21:43.985Z,81.70
2019-01-21T06:27:38.407Z,81.70
2019-01-21T06:33:39.029Z,82.00
2019-01-21T06:39:46.766Z,81.70
2019-01-21T06:45:31.888Z,81.30
2019-01-21T06:51:52.500Z,81.10
2019-01-21T06:58:15.730Z,81.10
2019-01-21T07:04:37.958Z,81.10
2019-01-21T07:10:32.656Z,82.40
2019-01-21T07:16:50.155Z,82.00
2019-01-21T07:22:35.003Z,82.40
2019-01-21T07:28:36.424Z,81.80
2019-01-21T07:34:40.364Z,81.60
2019-01-21T07:40:26.164Z,81.50
2019-01-21T07:46:31.783Z,81.60
2019-01-21T07:52:55.367Z,81.20
2019-01-21T07:59:14.179Z,81.60
2019-01-21T08:05:20.892Z,81.90
2019-01-21T08:11:20.678Z,81.60
2019-01-21T08:17:14.402Z,81.30
2019-01-21T08:23:30.382Z,81.20
2019-01-21T08:29:38.873Z,79.00
2019-01-21T08:35:23.447Z,68.20
2019-01-21T08:41:46.890Z,62.10
2019-01-21T08:47:43.327Z,56.40
2019-01-21T08:53:52.481Z,53.20
2019-01-21T08:59:47.699Z,48.60
2019-01-21T09:05:32.031Z,45.60
2019-01-21T09:11:45.310Z,42.00
2019-01-21T09:17:46.115Z,38.90
2019-01-21T09:23:27.079Z,37.00
2019-01-21T09:29:26.944Z,35.50
2019-01-21T09:34:53.962Z,33.40
2019-01-21T09:41:15.202Z,31.10
2019-01-21T09:46:56.468Z,30.70
2019-01-21T09:52:08.476Z,30.80
2019-01-21T09:57:29.387Z,30.00
2019-01-21T10:02:42.243Z,29.80
2019-01-21T10:09:00.087Z,32.00
2019-01-21T10:15:15.818Z,36.70
2019-01-21T10:21:06.244Z,42.00
2019-01-21T10:27:26.775Z,46.00
2019-01-21T10:33:21.348Z,48.60
2019-01-21T10:39:08.090Z,50.70
2019-01-21T10:44:55.959Z,51.80
2019-01-21T10:51:07.097Z,53.40
2019-01-21T10:57:07.367Z,55.00
2019-01-21T11:03:07.869Z,56.20
2019-01-21T11:09:31.288Z,56.80
2019-01-21T11:15:30.382Z,56.90
2019-01-21T11:21:15.142Z,57.30
2019-01-21T11:26:54.598Z,57.60
2019-01-21T11:32:40.591Z,58.00
2019-01-21T11:38:37.975Z,58.20
2019-01-21T11:44:41.170Z,58.80
2019-01-21T11:50:37.074Z,58.70
2019-01-21T11:56:11.996Z,58.50
2019-01-21T12:02:07.907Z,59.10
2019-01-21T12:07:52.561Z,59.00
2019-01-21T12:13:53.592Z,58.70
2019-01-21T12:19:49.891Z,58.60
2019-01-21T12:25:28.197Z,58.80
2019-01-21T12:31:25.726Z,58.70
2019-01-21T12:37:15.652Z,58.70
2019-01-21T12:43:05.601Z,58.60
2019-01-21T12:49:28.073Z,58.30
2019-01-21T12:55:12.186Z,58.00
2019-01-21T13:01:22.760Z,57.80
2019-01-21T13:06:51.359Z,58.10
2019-01-21T13:13:04.589Z,57.70
2019-01-21T13:19:08.999Z,57.40
2019-01-21T13:24:49.277Z,57.00
2019-01-21T13:30:36.235Z,57.10
2019-01-21T13:36:21.091Z,56.80
2019-01-21T13:42:15.856Z,56.60
2019-01-21T13:48:03.233Z,56.60
2019-01-21T13:53:45.626Z,56.60
2019-01-21T13:59:43.966Z,56.60
2019-01-21T14:05:46.232Z,56.70
2019-01-21T14:11:44.985Z,56.80
2019-01-21T14:17:48.460Z,56.70
2019-01-21T14:24:00.223Z,56.70
2019-01-21T14:30:32.496Z,57.10
2019-01-21T14:36:24.214Z,57.00
2019-01-21T14:42:16.493Z,57.10
2019-01-21T14:48:13.930Z,57.20
2019-01-21T14:54:23.872Z,57.50
2019-01-21T15:00:21.545Z,57.40
2019-01-21T15:06:06.507Z,57.50
2019-01-21T15:12:01.675Z,57.70
2019-01-21T15:18:06.010Z,58.10
2019-01-21T15:23:59.456Z,58.30
2019-01-21T15:30:04.551Z,58.30
2019-01-21T15:36:01.413Z,58.40
2019-01-21T15:41:52.737Z,58.80
2019-01-21T15:47:47.365Z,59.10
2019-01-21T15:53:32.309Z,59.20
2019-01-21T15:59:33.713Z,59.60
2019-01-21T16:04:55.605Z,60.50
2019-01-21T16:10:33.709Z,60.90
2019-01-21T16:16:45.468Z,60.90
2019-01-21T16:23:01.775Z,61.50
2019-01-21T16:29:15.752Z,62.10
2019-01-21T16:34:54.310Z,62.20
2019-01-21T16:40:38.047Z,62.80
2019-01-21T16:45:43.482Z,63.20
2019-01-21T16:50:49.009Z,63.40
2019-01-21T16:55:54.375Z,63.80
2019-01-21T17:00:59.770Z,64.10
2019-01-21T17:06:05.587Z,64.50
2019-01-21T17:11:11.122Z,65.30
2019-01-21T17:16:16.442Z,65.20
2019-01-21T17:21:26.925Z,65.00
2019-01-21T17:26:28.879Z,65.00
2019-01-21T17:31:34.871Z,65.40
2019-01-21T17:36:54.985Z,65.20
2019-01-21T17:42:07.179Z,65.40
2019-01-21T17:47:23.003Z,65.60
2019-01-21T17:58:55.457Z,66.10
2019-01-21T18:05:24.383Z,66.40
2019-01-21T18:11:18.222Z,66.70
2019-01-21T18:17:32.057Z,67.00
2019-01-21T18:35:23.558Z,68.40
2019-01-21T18:40:30.846Z,68.40
2019-01-21T18:45:37.627Z,68.60
2019-01-21T18:50:48.324Z,68.60
2019-01-21T18:56:19.003Z,68.90
2019-01-21T19:03:06.027Z,68.30
2019-01-21T19:27:12.273Z,68.70
2019-01-21T19:32:38.891Z,68.90
2019-01-21T19:37:50.770Z,68.70
2019-01-21T19:43:09.385Z,68.70
2019-01-21T20:02:23.183Z,70.20
2019-01-21T20:08:17.691Z,70.60
2019-01-21T20:14:58.884Z,70.50
2019-01-21T20:20:16.556Z,70.80
2019-01-21T20:25:28.715Z,71.00
2019-01-21T20:38:49.003Z,71.50
2019-01-21T20:44:25.734Z,72.20
2019-01-21T21:02:51.737Z,74.00
2019-01-21T21:35:05.074Z,74.60
2019-01-21T21:40:16.905Z,74.80
2019-01-21T21:46:11.196Z,75.30
2019-01-21T21:51:41.137Z,75.50
2019-01-21T21:58:59.796Z,75.70
2019-01-21T22:05:47.122Z,75.20
2019-01-21T22:23:58.009Z,76.20
2019-01-21T22:29:08.668Z,76.50
2019-01-21T22:35:02.689Z,76.80
2019-01-21T22:40:46.526Z,76.40
2019-01-21T22:46:56.712Z,76.80
2019-01-21T22:52:05.732Z,76.40
2019-01-21T22:57:23.597Z,76.60
2019-01-21T23:02:37.193Z,77.00
2019-01-21T23:08:55.184Z,76.60
2019-01-21T23:14:09.706Z,76.50
2019-01-21T23:19:38.787Z,77.10
2019-01-21T23:24:53.671Z,77.30
2019-01-21T23:30:07.519Z,77.50
2019-01-21T23:35:13.664Z,77.30
2019-01-21T23:40:20.592Z,77.00
2019-01-21T23:45:36.598Z,77.00
2019-01-21T23:50:50.511Z,77.10
2019-01-21T23:56:11.443Z,77.50
